Shippen, Pennsylvania
Current Conditions -  °F | °C
As of 12:15 PM on Saturday 20 Dec 2014 (Local Time) from KN38 Reporting Station
Overcast Overcast  
Wind Chill: 17°   Ceiling: 1300
Heat Index: 25°   Visibility: 10mi
Dew Point: 21°   Wind: 7mph
Humidity: 86%   Direction: 20°NNE
Pressure: 30.17"   Gusts: NA
Location:  41.7308°N, 77.349°W
Report Text: KN38 201715Z AUTO 02006KT 10SM OVC013 M04/M06 A3017 RMK AO2
Loading
Personal Weather Stations






























Interactive Weather Map New forecast layout! Learn more

10-Day Weather Forecast

Advertisements
Track Severe Weather on mobile